Terminal Aerodrome Forecast
Issued by NWS

Home | Current Version | Previous Version | Graphics & Text | Print | Product List | Glossary On
Versions: 1 2 3 4 5 6 7 8 9 10 11 12 13
000
FTUS43 KICT 231120
TAFSLN
TAF
KSLN 231120Z 2312/2412 31016KT P6SM SCT020 OVC030
     FM231500 34019G28KT P6SM BKN025 OVC035
     FM231800 34023G33KT 5SM -SN SCT009 OVC018
      TEMPO 2319/2323 1 1/2SM -SN OVC012
     FM240100 34019G27KT P6SM OVC020=

USA.gov is the U.S. government's official web portal to all federal, state and local government web resources and services.